createdAt,value
2023-04-18T00:01:46.720Z,4.53
2023-04-18T00:04:18.556Z,4.55
2023-04-18T00:06:56.489Z,4.58
2023-04-18T00:09:25.455Z,4.58
2023-04-18T00:11:54.440Z,4.60
2023-04-18T00:14:26.052Z,4.62
2023-04-18T00:17:13.628Z,4.61
2023-04-18T00:19:45.545Z,4.61
2023-04-18T00:22:22.432Z,4.62
2023-04-18T00:25:02.052Z,4.62
2023-04-18T00:27:31.078Z,4.65
2023-04-18T00:30:02.541Z,4.65
2023-04-18T00:32:39.221Z,4.63
2023-04-18T00:35:07.754Z,4.64
2023-04-18T00:37:36.009Z,4.64
2023-04-18T00:40:05.779Z,4.64
2023-04-18T00:42:37.046Z,4.64
2023-04-18T00:45:06.518Z,4.64
2023-04-18T00:47:34.872Z,4.63
2023-04-18T00:50:03.764Z,4.64
2023-04-18T00:52:34.336Z,4.65
2023-04-18T00:55:10.144Z,4.67
2023-04-18T00:57:38.684Z,4.66
2023-04-18T01:00:11.010Z,4.66
2023-04-18T01:02:40.832Z,4.66
2023-04-18T01:05:09.872Z,4.65
2023-04-18T01:07:42.129Z,4.63
2023-04-18T01:10:11.184Z,4.64
2023-04-18T01:12:41.486Z,4.64
2023-04-18T01:15:10.160Z,4.61
2023-04-18T01:17:40.334Z,4.58
2023-04-18T01:24:07.176Z,4.57
2023-04-18T01:26:36.010Z,4.57
2023-04-18T01:29:04.666Z,4.55
2023-04-18T01:31:38.184Z,4.55
2023-04-18T01:34:08.011Z,4.56
2023-04-18T01:36:41.040Z,4.54
2023-04-18T01:39:09.679Z,4.54
2023-04-18T01:41:38.425Z,4.55
2023-04-18T01:44:09.114Z,4.57
2023-04-18T01:46:37.814Z,4.58
2023-04-18T01:49:09.717Z,4.59
2023-04-18T01:51:46.168Z,4.59
2023-04-18T01:54:15.493Z,4.62
2023-04-18T01:56:44.242Z,4.58
2023-04-18T01:59:13.270Z,4.56
2023-04-18T02:01:42.955Z,4.56
2023-04-18T02:04:11.659Z,4.54
2023-04-18T02:06:40.077Z,4.56
2023-04-18T02:09:08.720Z,4.56
2023-04-18T02:11:36.941Z,4.55
2023-04-18T02:14:05.197Z,4.54
2023-04-18T02:16:35.425Z,4.52
2023-04-18T02:19:04.569Z,4.49
2023-04-18T02:21:32.861Z,4.47
2023-04-18T02:24:01.442Z,4.43
2023-04-18T02:26:29.882Z,4.41
2023-04-18T02:28:58.944Z,4.36
2023-04-18T02:31:27.254Z,4.36
2023-04-18T02:33:55.991Z,4.32
2023-04-18T02:36:38.980Z,4.26
2023-04-18T02:39:07.433Z,4.22
2023-04-18T02:41:37.913Z,4.20
2023-04-18T02:44:07.349Z,4.19
2023-04-18T02:46:35.624Z,4.19
2023-04-18T02:49:04.075Z,4.17
2023-04-18T02:51:32.488Z,4.18
2023-04-18T02:54:01.122Z,4.20
2023-04-18T02:56:29.750Z,4.19
2023-04-18T02:58:57.900Z,4.19
2023-04-18T03:01:26.301Z,4.19
2023-04-18T03:03:54.768Z,4.19
2023-04-18T03:06:23.354Z,4.19
2023-04-18T03:08:55.742Z,4.18
2023-04-18T03:11:24.488Z,4.19
2023-04-18T03:13:55.851Z,4.20
2023-04-18T03:16:27.417Z,4.21
2023-04-18T03:18:58.929Z,4.20
2023-04-18T03:21:28.049Z,4.20
2023-04-18T03:23:59.769Z,4.21
2023-04-18T03:26:28.478Z,4.22
2023-04-18T03:29:03.047Z,4.22
2023-04-18T03:31:51.915Z,4.22
2023-04-18T03:34:20.603Z,4.25
2023-04-18T03:36:52.023Z,4.24
2023-04-18T03:39:23.993Z,4.23
2023-04-18T03:41:55.317Z,4.26
2023-04-18T03:44:23.881Z,4.26
2023-04-18T03:46:52.282Z,4.27
2023-04-18T03:49:20.426Z,4.30
2023-04-18T03:51:52.309Z,4.31
2023-04-18T03:54:20.633Z,4.31
2023-04-18T03:56:52.731Z,4.33
2023-04-18T03:59:37.707Z,4.34
2023-04-18T04:02:06.352Z,4.33
2023-04-18T04:05:07.506Z,4.33
2023-04-18T04:07:35.896Z,4.34
2023-04-18T04:10:07.540Z,4.34
2023-04-18T04:12:36.290Z,4.35
2023-04-18T04:15:05.688Z,4.37
2023-04-18T04:17:34.064Z,4.38
2023-04-18T04:20:07.526Z,4.40
2023-04-18T04:22:38.957Z,4.39
2023-04-18T04:25:08.409Z,4.38
2023-04-18T04:27:36.985Z,4.38
2023-04-18T04:30:06.938Z,4.39
2023-04-18T04:32:35.757Z,4.40
2023-04-18T04:35:24.558Z,4.42
2023-04-18T04:37:53.315Z,4.43
2023-04-18T04:40:23.200Z,4.45
2023-04-18T04:42:54.283Z,4.44
2023-04-18T04:45:23.575Z,4.44
2023-04-18T04:47:52.523Z,4.46
2023-04-18T04:50:21.096Z,4.48
2023-04-18T04:52:50.055Z,4.51
2023-04-18T04:55:21.085Z,4.52
2023-04-18T04:57:49.502Z,4.52
2023-04-18T05:00:21.093Z,4.54
2023-04-18T05:02:49.969Z,4.56
2023-04-18T05:05:18.635Z,4.57
2023-04-18T05:07:50.625Z,4.60
2023-04-18T05:10:26.502Z,4.63
2023-04-18T05:13:05.734Z,4.68
2023-04-18T05:15:34.981Z,4.66
2023-04-18T05:18:05.837Z,4.68
2023-04-18T05:20:34.820Z,4.72
2023-04-18T05:23:03.048Z,4.77
2023-04-18T05:25:32.176Z,4.81
2023-04-18T05:28:01.488Z,4.83
2023-04-18T05:30:39.742Z,4.86
2023-04-18T05:33:08.332Z,4.92
2023-04-18T05:35:36.816Z,4.96
2023-04-18T05:38:08.469Z,5.01
2023-04-18T05:40:36.838Z,5.06
2023-04-18T05:43:13.752Z,5.09
2023-04-18T05:45:42.346Z,5.11
2023-04-18T05:48:10.769Z,5.13
2023-04-18T05:50:43.106Z,5.19
2023-04-18T05:53:11.760Z,5.23
2023-04-18T05:55:41.264Z,5.30
2023-04-18T05:58:10.722Z,5.37
2023-04-18T06:00:40.526Z,5.44
2023-04-18T06:03:10.823Z,5.45
2023-04-18T06:05:41.221Z,5.51
2023-04-18T06:08:09.993Z,5.56
2023-04-18T06:10:39.214Z,5.57
2023-04-18T06:13:07.548Z,5.56
2023-04-18T06:15:35.873Z,5.56
2023-04-18T06:18:05.400Z,5.62
2023-04-18T06:20:33.550Z,5.64
2023-04-18T06:23:01.935Z,5.66
2023-04-18T06:25:32.908Z,5.70
2023-04-18T06:28:05.600Z,5.73
2023-04-18T06:30:34.025Z,5.77
2023-04-18T06:33:02.493Z,5.78
2023-04-18T06:35:32.049Z,5.83
2023-04-18T06:38:00.341Z,5.84
2023-04-18T06:40:30.033Z,5.90
2023-04-18T06:42:58.293Z,5.96
2023-04-18T06:45:26.840Z,5.99
2023-04-18T06:47:55.142Z,6.02
2023-04-18T06:50:23.561Z,6.05
2023-04-18T06:52:54.568Z,6.07
2023-04-18T06:55:23.372Z,6.06
2023-04-18T06:57:51.653Z,6.07
2023-04-18T07:00:23.277Z,6.06
2023-04-18T07:02:52.216Z,6.04
2023-04-18T07:05:21.956Z,6.07
2023-04-18T07:07:51.811Z,6.09
2023-04-18T07:10:20.199Z,6.10
2023-04-18T07:12:48.801Z,6.11
2023-04-18T07:15:19.418Z,6.15
2023-04-18T07:17:50.891Z,6.22
2023-04-18T07:20:21.547Z,6.23
2023-04-18T07:22:59.165Z,6.27
2023-04-18T07:25:28.113Z,6.32
2023-04-18T07:27:56.415Z,6.34
2023-04-18T07:30:24.867Z,6.35
2023-04-18T07:32:53.253Z,6.41
2023-04-18T07:35:21.904Z,6.48
2023-04-18T07:37:50.200Z,6.57
2023-04-18T07:40:21.159Z,6.63
2023-04-18T07:42:49.825Z,6.65
2023-04-18T07:45:18.212Z,6.65
2023-04-18T07:47:47.058Z,6.63
2023-04-18T07:50:21.759Z,6.63
2023-04-18T07:52:50.031Z,6.65
2023-04-18T07:55:18.688Z,6.66
2023-04-18T07:57:50.764Z,6.65
2023-04-18T08:00:19.317Z,6.68
2023-04-18T08:02:50.234Z,6.70
2023-04-18T08:05:21.479Z,6.75
2023-04-18T08:07:49.777Z,6.78
2023-04-18T08:10:18.180Z,6.80
2023-04-18T08:12:46.681Z,6.81
2023-04-18T08:15:18.638Z,6.83
2023-04-18T08:17:49.302Z,6.86
2023-04-18T08:20:17.821Z,6.92
2023-04-18T08:23:06.221Z,7.00
2023-04-18T08:25:37.762Z,7.02
2023-04-18T08:28:18.911Z,7.03
2023-04-18T08:30:51.491Z,7.03
2023-04-18T08:33:20.299Z,7.02
2023-04-18T08:35:48.656Z,7.06
2023-04-18T08:38:19.491Z,7.05
2023-04-18T08:40:47.710Z,7.05
2023-04-18T08:43:16.149Z,7.05
2023-04-18T08:45:51.168Z,7.03
2023-04-18T08:48:19.522Z,7.04
2023-04-18T08:50:47.951Z,7.06
2023-04-18T08:53:19.009Z,7.07
2023-04-18T08:55:48.130Z,7.09
2023-04-18T08:58:22.464Z,7.12
2023-04-18T09:00:55.065Z,7.17
2023-04-18T09:03:55.777Z,7.19
2023-04-18T09:06:25.539Z,7.21
2023-04-18T09:08:59.276Z,7.24
2023-04-18T09:11:34.630Z,7.27
2023-04-18T09:14:03.721Z,7.31
2023-04-18T09:16:50.731Z,7.34
2023-04-18T09:19:19.231Z,7.40
2023-04-18T09:21:58.086Z,7.46
2023-04-18T09:24:32.944Z,7.54
2023-04-18T09:27:01.423Z,7.62
2023-04-18T09:30:05.186Z,7.69
2023-04-18T09:32:34.115Z,7.70
2023-04-18T09:35:05.730Z,7.71
2023-04-18T09:37:35.420Z,7.77
2023-04-18T09:40:17.413Z,7.87
2023-04-18T09:42:48.209Z,7.98
2023-04-18T09:45:16.449Z,8.02
2023-04-18T09:47:44.791Z,8.04
2023-04-18T09:50:13.736Z,8.03
2023-04-18T09:52:46.507Z,8.01
2023-04-18T09:55:17.474Z,7.97
2023-04-18T09:57:48.855Z,7.97
2023-04-18T10:00:24.894Z,8.00
2023-04-18T10:03:06.096Z,8.04
2023-04-18T10:05:37.595Z,8.07
2023-04-18T10:08:08.483Z,8.08
2023-04-18T10:10:38.810Z,8.11
2023-04-18T10:13:11.292Z,8.16
2023-04-18T10:15:44.288Z,8.21
2023-04-18T10:18:19.012Z,8.26
2023-04-18T10:20:48.159Z,8.35
2023-04-18T10:23:32.111Z,8.40
2023-04-18T10:26:09.713Z,8.43
2023-04-18T10:28:55.117Z,8.44
2023-04-18T10:31:28.815Z,8.44
2023-04-18T10:34:05.307Z,8.44
2023-04-18T10:36:34.964Z,8.48
2023-04-18T10:39:22.038Z,8.50
2023-04-18T10:41:51.603Z,8.51
2023-04-18T10:44:23.262Z,8.52
2023-04-18T10:46:52.636Z,8.57
2023-04-18T10:52:09.857Z,8.60
2023-04-18T10:54:51.106Z,8.62
2023-04-18T10:57:44.758Z,8.63
2023-04-18T11:00:16.984Z,8.62
2023-04-18T11:02:51.026Z,8.61
2023-04-18T11:05:22.060Z,8.64
2023-04-18T11:07:56.343Z,8.70
2023-04-18T11:10:27.808Z,8.76
2023-04-18T11:12:56.701Z,8.78
2023-04-18T11:15:25.930Z,8.78
2023-04-18T11:18:03.441Z,8.81
2023-04-18T11:20:50.602Z,8.85
2023-04-18T11:23:23.140Z,8.87
2023-04-18T11:25:58.516Z,8.88
2023-04-18T11:28:30.570Z,8.91
2023-04-18T11:31:00.475Z,8.94
2023-04-18T11:33:29.658Z,8.95
2023-04-18T11:36:03.868Z,8.97
2023-04-18T11:38:52.886Z,9.00
2023-04-18T11:41:26.576Z,9.05
2023-04-18T11:43:56.637Z,9.08
2023-04-18T11:46:45.497Z,9.11
2023-04-18T11:49:27.069Z,9.15
2023-04-18T11:51:56.476Z,9.20
2023-04-18T11:54:45.028Z,9.25
2023-04-18T11:57:22.464Z,9.30
2023-04-18T11:59:59.616Z,9.35
2023-04-18T12:02:43.497Z,9.39
2023-04-18T12:05:29.431Z,9.46
2023-04-18T12:08:11.619Z,9.54
2023-04-18T12:10:47.665Z,9.64
2023-04-18T12:13:15.981Z,9.73
2023-04-18T12:15:46.339Z,9.79
2023-04-18T12:18:18.273Z,9.81
2023-04-18T12:20:52.424Z,9.86
2023-04-18T12:23:39.304Z,9.94
2023-04-18T12:26:15.190Z,10.04
2023-04-18T12:28:46.800Z,10.06
2023-04-18T12:31:15.001Z,10.07
2023-04-18T12:33:43.167Z,10.07
2023-04-18T12:36:11.405Z,10.08
2023-04-18T12:38:40.192Z,10.09
2023-04-18T12:41:11.540Z,10.10
2023-04-18T12:43:39.854Z,10.13
2023-04-18T12:46:08.204Z,10.16
2023-04-18T12:48:37.069Z,10.20
2023-04-18T12:51:07.124Z,10.23
2023-04-18T12:53:35.579Z,10.28
2023-04-18T12:56:04.204Z,10.33
2023-04-18T12:58:32.622Z,10.38
2023-04-18T13:01:01.210Z,10.41
2023-04-18T13:03:29.857Z,10.42
2023-04-18T13:05:58.371Z,10.43
2023-04-18T13:08:26.803Z,10.46
2023-04-18T13:11:15.968Z,10.52
2023-04-18T13:13:44.186Z,10.57
2023-04-18T13:16:14.966Z,10.64
2023-04-18T13:18:43.338Z,10.67
2023-04-18T13:21:11.551Z,10.73
2023-04-18T13:23:39.650Z,10.82
2023-04-18T13:26:13.492Z,10.92
2023-04-18T13:28:42.450Z,10.99
2023-04-18T13:31:15.708Z,10.96
2023-04-18T13:33:51.799Z,10.88
2023-04-18T13:36:24.032Z,10.87
2023-04-18T13:38:53.479Z,10.86
2023-04-18T13:41:23.749Z,10.87
2023-04-18T13:44:00.044Z,10.91
2023-04-18T13:46:28.649Z,10.95
2023-04-18T13:49:09.901Z,11.00
2023-04-18T13:51:38.544Z,11.00
2023-04-18T13:54:08.645Z,11.01
2023-04-18T13:56:37.064Z,11.02
2023-04-18T13:59:28.067Z,11.01
2023-04-18T14:01:56.921Z,11.06
2023-04-18T14:04:26.033Z,11.12
2023-04-18T14:07:00.451Z,11.17
2023-04-18T14:09:31.918Z,11.21
2023-04-18T14:12:11.952Z,11.26
2023-04-18T14:14:43.289Z,11.31
2023-04-18T14:17:11.793Z,11.34
2023-04-18T14:19:43.217Z,11.37
2023-04-18T14:22:18.045Z,11.34
2023-04-18T14:24:54.742Z,11.33
2023-04-18T14:27:25.605Z,11.33
2023-04-18T14:29:54.287Z,11.33
2023-04-18T14:32:22.883Z,11.35
2023-04-18T14:34:54.746Z,11.36
2023-04-18T14:37:23.250Z,11.37
2023-04-18T14:39:51.710Z,11.39
2023-04-18T14:42:21.388Z,11.41
2023-04-18T14:44:56.930Z,11.42
2023-04-18T14:47:31.017Z,11.43
2023-04-18T14:50:09.652Z,11.44
2023-04-18T14:52:40.362Z,11.43
2023-04-18T14:55:09.926Z,11.46
2023-04-18T14:57:49.339Z,11.50
2023-04-18T15:00:18.050Z,11.50
2023-04-18T15:02:46.546Z,11.52
2023-04-18T15:05:17.631Z,11.54
2023-04-18T15:07:47.249Z,11.54
2023-04-18T15:10:23.213Z,11.56
2023-04-18T15:12:54.121Z,11.59
2023-04-18T15:15:35.102Z,11.61
2023-04-18T15:18:13.905Z,11.62
2023-04-18T15:20:44.873Z,11.61
2023-04-18T15:23:14.493Z,11.59
2023-04-18T15:25:47.660Z,11.56
2023-04-18T15:28:19.666Z,11.51
2023-04-18T15:30:51.001Z,11.47
2023-04-18T15:33:41.472Z,11.45
2023-04-18T15:36:10.282Z,11.42
2023-04-18T15:38:46.252Z,11.41
2023-04-18T15:41:14.911Z,11.40
2023-04-18T15:43:45.562Z,11.39
2023-04-18T15:47:15.639Z,11.39
2023-04-18T15:50:05.644Z,11.39
2023-04-18T15:52:33.994Z,11.39
2023-04-18T15:55:02.451Z,11.39
2023-04-18T15:57:41.163Z,11.38
2023-04-18T16:00:16.409Z,11.37
2023-04-18T16:03:04.916Z,11.37
2023-04-18T16:05:36.135Z,11.37
2023-04-18T16:08:04.867Z,11.38
2023-04-18T16:10:33.704Z,11.38
2023-04-18T16:13:14.597Z,11.39
2023-04-18T16:15:48.323Z,11.40
2023-04-18T16:18:17.509Z,11.41
2023-04-18T16:20:47.273Z,11.41
2023-04-18T16:23:35.883Z,11.41
2023-04-18T16:26:04.294Z,11.44
2023-04-18T16:29:02.003Z,11.45
2023-04-18T16:31:51.796Z,11.52
2023-04-18T16:34:20.402Z,11.56
2023-04-18T16:36:50.814Z,11.60
2023-04-18T16:39:20.055Z,11.58
2023-04-18T16:42:04.085Z,11.56
2023-04-18T16:44:33.545Z,11.53
2023-04-18T16:47:03.073Z,11.52
2023-04-18T16:49:31.997Z,11.51
2023-04-18T16:52:08.338Z,11.49
2023-04-18T16:54:39.758Z,11.47
2023-04-18T16:57:08.852Z,11.46
2023-04-18T16:59:37.712Z,11.44
2023-04-18T17:02:07.732Z,11.42
2023-04-18T17:04:37.220Z,11.39
2023-04-18T17:07:06.169Z,11.37
2023-04-18T17:09:44.567Z,11.33
2023-04-18T17:12:15.702Z,11.31
2023-04-18T17:14:44.404Z,11.30
2023-04-18T17:17:15.688Z,11.30
2023-04-18T17:19:44.054Z,11.28
2023-04-18T17:22:13.797Z,11.24
2023-04-18T17:24:50.430Z,11.21
2023-04-18T17:27:40.088Z,11.16
2023-04-18T17:30:09.100Z,11.12
2023-04-18T17:32:43.120Z,11.09
2023-04-18T17:35:15.103Z,11.06
2023-04-18T17:37:48.072Z,11.03
2023-04-18T17:40:16.511Z,10.99
2023-04-18T17:42:48.034Z,10.96
2023-04-18T17:45:20.715Z,10.91
2023-04-18T17:47:53.991Z,10.87
2023-04-18T17:50:22.441Z,10.84
2023-04-18T17:52:51.157Z,10.80
2023-04-18T17:55:19.923Z,10.77
2023-04-18T17:57:48.536Z,10.75
2023-04-18T18:00:18.482Z,10.72
2023-04-18T18:02:46.963Z,10.69
2023-04-18T18:05:24.047Z,10.66
2023-04-18T18:07:57.388Z,10.63
2023-04-18T18:10:26.172Z,10.60
2023-04-18T18:12:56.678Z,10.57
2023-04-18T18:15:34.906Z,10.54
2023-04-18T18:18:03.250Z,10.51
2023-04-18T18:20:31.622Z,10.48
2023-04-18T18:23:00.372Z,10.45
2023-04-18T18:25:31.609Z,10.41
2023-04-18T18:28:03.542Z,10.40
2023-04-18T18:30:34.432Z,10.38
2023-04-18T18:33:03.617Z,10.36
2023-04-18T18:35:31.888Z,10.33
2023-04-18T18:38:10.462Z,10.30
2023-04-18T18:40:38.792Z,10.27
2023-04-18T18:43:07.457Z,10.24
2023-04-18T18:45:50.174Z,10.21
2023-04-18T18:48:18.962Z,10.19
2023-04-18T18:50:47.369Z,10.17
2023-04-18T18:53:18.199Z,10.16
2023-04-18T18:55:46.478Z,10.14
2023-04-18T18:58:17.327Z,10.12
2023-04-18T19:00:57.186Z,10.09
2023-04-18T19:03:32.100Z,10.07
2023-04-18T19:06:21.379Z,10.05
2023-04-18T19:08:52.488Z,10.04
2023-04-18T19:11:21.337Z,10.03
2023-04-18T19:13:52.107Z,10.03
2023-04-18T19:16:23.913Z,10.01
2023-04-18T19:18:55.053Z,9.98
2023-04-18T19:21:23.456Z,9.97
2023-04-18T19:24:11.413Z,9.97
2023-04-18T19:26:43.670Z,9.98
2023-04-18T19:29:18.589Z,9.99
2023-04-18T19:31:46.997Z,9.98
2023-04-18T19:34:22.514Z,9.96
2023-04-18T19:36:53.884Z,9.94
2023-04-18T19:39:31.801Z,9.92
2023-04-18T19:42:09.774Z,9.91
2023-04-18T19:44:48.427Z,9.90
2023-04-18T19:47:22.001Z,9.90
2023-04-18T19:49:53.754Z,9.91
2023-04-18T19:52:43.568Z,9.92
2023-04-18T19:55:12.430Z,9.92
2023-04-18T19:57:43.548Z,9.95
2023-04-18T20:00:13.691Z,9.98
2023-04-18T20:02:43.519Z,10.00
2023-04-18T20:05:13.133Z,10.03
2023-04-18T20:07:42.140Z,10.06
2023-04-18T20:10:11.196Z,10.10
2023-04-18T20:12:52.991Z,10.14
2023-04-18T20:15:22.804Z,10.16
2023-04-18T20:17:51.517Z,10.18
2023-04-18T20:20:20.027Z,10.18
2023-04-18T20:22:58.776Z,10.18
2023-04-18T20:25:27.526Z,10.19
2023-04-18T20:27:56.358Z,10.20
2023-04-18T20:30:24.890Z,10.20
2023-04-18T20:32:53.561Z,10.19
2023-04-18T20:35:31.800Z,10.19
2023-04-18T20:38:00.692Z,10.15
2023-04-18T20:40:33.563Z,10.09
2023-04-18T20:43:06.976Z,10.03
2023-04-18T20:45:37.807Z,10.00
2023-04-18T20:48:09.872Z,9.98
2023-04-18T20:50:44.172Z,9.94
2023-04-18T20:53:16.295Z,9.91
2023-04-18T20:55:47.294Z,9.88
2023-04-18T20:58:17.303Z,9.85
2023-04-18T21:00:48.364Z,9.86
2023-04-18T21:03:19.428Z,9.85
2023-04-18T21:05:47.958Z,9.83
2023-04-18T21:08:16.976Z,9.82
2023-04-18T21:10:45.236Z,9.80
2023-04-18T21:13:13.624Z,9.78
2023-04-18T21:15:47.612Z,9.78
2023-04-18T21:18:22.512Z,9.78
2023-04-18T21:20:53.174Z,9.78
2023-04-18T21:23:23.767Z,9.76
2023-04-18T21:25:54.340Z,9.73
2023-04-18T21:28:27.317Z,9.70
2023-04-18T21:30:56.510Z,9.65
2023-04-18T21:33:26.340Z,9.61
2023-04-18T21:35:57.823Z,9.58
2023-04-18T21:38:32.608Z,9.56
2023-04-18T21:41:00.894Z,9.55
2023-04-18T21:43:29.799Z,9.51
2023-04-18T21:45:58.026Z,9.46
2023-04-18T21:48:47.899Z,9.41
2023-04-18T21:51:17.576Z,9.37
2023-04-18T21:53:56.579Z,9.33
2023-04-18T21:56:25.036Z,9.31
2023-04-18T21:58:53.241Z,9.26
2023-04-18T22:01:21.574Z,9.22
2023-04-18T22:03:51.510Z,9.20
2023-04-18T22:06:21.015Z,9.17
2023-04-18T22:08:59.804Z,9.14
2023-04-18T22:11:28.738Z,9.09
2023-04-18T22:13:58.269Z,9.02
2023-04-18T22:16:45.258Z,8.95
2023-04-18T22:19:14.279Z,8.90
2023-04-18T22:21:43.168Z,8.88
2023-04-18T22:24:11.854Z,8.83
2023-04-18T22:26:48.119Z,8.76
2023-04-18T22:29:16.766Z,8.71
2023-04-18T22:31:57.790Z,8.64
2023-04-18T22:34:26.056Z,8.58
2023-04-18T22:36:54.786Z,8.55
2023-04-18T22:39:23.184Z,8.54
2023-04-18T22:41:51.872Z,8.50
2023-04-18T22:44:29.634Z,8.49
2023-04-18T22:46:58.329Z,8.48
2023-04-18T22:49:30.231Z,8.48
2023-04-18T22:52:14.444Z,8.45
2023-04-18T22:54:52.400Z,8.46
2023-04-18T22:57:23.555Z,8.48
2023-04-18T22:59:51.761Z,8.49
2023-04-18T23:02:20.573Z,8.50
2023-04-18T23:04:53.478Z,8.51
2023-04-18T23:07:21.774Z,8.51
2023-04-18T23:09:50.429Z,8.50
2023-04-18T23:12:29.062Z,8.49
2023-04-18T23:15:04.459Z,8.48
2023-04-18T23:17:35.072Z,8.47
2023-04-18T23:20:10.030Z,8.46
2023-04-18T23:22:39.353Z,8.45
2023-04-18T23:25:10.377Z,8.45
2023-04-18T23:27:52.575Z,8.42
2023-04-18T23:30:21.208Z,8.38
2023-04-18T23:32:49.684Z,8.34
2023-04-18T23:35:17.960Z,8.30
2023-04-18T23:37:46.380Z,8.25
2023-04-18T23:40:14.743Z,8.23
2023-04-18T23:42:44.109Z,8.19
2023-04-18T23:45:12.810Z,8.14
2023-04-18T23:47:53.836Z,8.08
2023-04-18T23:50:22.042Z,8.03
2023-04-18T23:52:50.390Z,7.98
2023-04-18T23:55:19.027Z,7.95
2023-04-18T23:59:02.709Z,7.93
